createdAt,value
2023-02-27T00:00:15.082Z,2.83
2023-02-27T00:02:43.438Z,2.72
2023-02-27T00:05:10.908Z,2.50
2023-02-27T00:07:38.097Z,3.30
2023-02-27T00:10:05.794Z,2.92
2023-02-27T00:12:37.975Z,2.97
2023-02-27T00:15:09.585Z,2.92
2023-02-27T00:17:37.034Z,3.25
2023-02-27T00:20:04.874Z,2.97
2023-02-27T00:22:32.146Z,3.28
2023-02-27T00:24:59.767Z,2.90
2023-02-27T00:27:26.916Z,3.10
2023-02-27T00:29:54.075Z,3.10
2023-02-27T00:32:21.299Z,2.58
2023-02-27T00:34:48.784Z,2.97
2023-02-27T00:37:15.977Z,3.05
2023-02-27T00:39:43.365Z,3.03
2023-02-27T00:42:10.552Z,3.20
2023-02-27T00:44:38.590Z,3.25
2023-02-27T00:47:05.810Z,2.97
2023-02-27T00:49:32.965Z,3.22
2023-02-27T00:52:00.122Z,2.88
2023-02-27T00:54:27.739Z,3.53
2023-02-27T00:56:54.947Z,2.80
2023-02-27T00:59:22.128Z,3.00
2023-02-27T01:01:49.325Z,2.78
2023-02-27T01:04:16.519Z,2.58
2023-02-27T01:06:43.664Z,2.88
2023-02-27T01:09:10.839Z,3.13
2023-02-27T01:11:38.211Z,2.78
2023-02-27T01:14:05.867Z,2.88
2023-02-27T01:16:33.125Z,3.13
2023-02-27T01:19:00.452Z,3.03
2023-02-27T01:21:28.959Z,2.88
2023-02-27T01:23:56.235Z,2.75
2023-02-27T01:26:23.397Z,3.15
2023-02-27T01:28:50.544Z,2.88
2023-02-27T01:31:17.765Z,3.10
2023-02-27T01:33:44.957Z,2.97
2023-02-27T01:36:12.345Z,2.80
2023-02-27T01:38:39.537Z,2.75
2023-02-27T01:41:07.527Z,2.78
2023-02-27T01:43:35.333Z,2.80
2023-02-27T01:46:02.611Z,2.67
2023-02-27T01:48:35.224Z,2.90
2023-02-27T01:51:05.757Z,3.05
2023-02-27T01:53:34.822Z,3.40
2023-02-27T01:56:05.603Z,3.30
2023-02-27T01:58:32.824Z,3.25
2023-02-27T02:01:00.030Z,3.40
2023-02-27T02:03:30.954Z,3.60
2023-02-27T02:05:58.745Z,3.20
2023-02-27T02:08:26.846Z,3.33
2023-02-27T02:10:55.036Z,3.50
2023-02-27T02:13:22.594Z,3.55
2023-02-27T02:15:54.400Z,3.25
2023-02-27T02:18:41.848Z,3.90
2023-02-27T02:21:21.133Z,3.58
2023-02-27T02:24:23.687Z,3.25
2023-02-27T02:27:05.957Z,3.42
2023-02-27T02:29:48.465Z,3.75
2023-02-27T02:32:35.843Z,3.35
2023-02-27T02:35:21.100Z,3.10
2023-02-27T02:37:51.450Z,3.65
2023-02-27T02:40:18.558Z,3.92
2023-02-27T02:42:45.783Z,3.60
2023-02-27T02:45:31.427Z,3.28
2023-02-27T02:48:16.971Z,3.20
2023-02-27T02:50:53.180Z,3.05
2023-02-27T02:53:31.092Z,3.10
2023-02-27T02:56:03.534Z,3.05
2023-02-27T02:58:33.791Z,3.15
2023-02-27T03:01:04.450Z,3.30
2023-02-27T03:03:36.165Z,2.72
2023-02-27T03:06:09.258Z,3.05
2023-02-27T03:08:46.822Z,3.10
2023-02-27T03:11:14.030Z,3.33
2023-02-27T03:13:45.099Z,3.28
2023-02-27T03:16:18.133Z,3.38
2023-02-27T03:18:49.382Z,3.40
2023-02-27T03:21:19.042Z,3.08
2023-02-27T03:23:47.750Z,3.20
2023-02-27T03:26:17.079Z,3.20
2023-02-27T03:28:51.663Z,2.92
2023-02-27T03:31:23.250Z,3.38
2023-02-27T03:33:56.617Z,3.50
2023-02-27T03:36:27.551Z,3.15
2023-02-27T03:39:21.428Z,3.58
2023-02-27T03:41:51.951Z,2.90
2023-02-27T03:44:19.089Z,3.13
2023-02-27T03:46:46.521Z,2.88
2023-02-27T03:49:13.665Z,3.10
2023-02-27T03:51:40.786Z,3.13
2023-02-27T03:54:19.174Z,3.35
2023-02-27T03:57:01.627Z,3.00
2023-02-27T03:59:29.095Z,3.17
2023-02-27T04:01:56.736Z,3.38
2023-02-27T04:04:24.330Z,3.22
2023-02-27T04:07:13.963Z,3.20
2023-02-27T04:09:41.118Z,3.22
2023-02-27T04:12:20.397Z,3.03
2023-02-27T04:14:47.690Z,3.22
2023-02-27T04:17:23.231Z,3.17
2023-02-27T04:20:05.029Z,3.15
2023-02-27T04:22:40.059Z,3.03
2023-02-27T04:25:25.201Z,2.95
2023-02-27T04:27:57.287Z,3.30
2023-02-27T04:30:42.899Z,3.22
2023-02-27T04:33:13.930Z,3.10
2023-02-27T04:36:01.389Z,2.97
2023-02-27T04:38:30.932Z,3.38
2023-02-27T04:41:20.609Z,3.08
2023-02-27T04:43:48.877Z,2.70
2023-02-27T04:46:16.908Z,3.10
2023-02-27T04:48:49.548Z,3.25
2023-02-27T04:51:18.936Z,3.05
2023-02-27T04:54:21.745Z,3.45
2023-02-27T04:56:53.078Z,3.38
2023-02-27T04:59:26.132Z,2.78
2023-02-27T05:02:02.795Z,2.97
2023-02-27T05:04:32.407Z,3.20
2023-02-27T05:07:01.538Z,3.10
2023-02-27T05:09:36.054Z,3.17
2023-02-27T05:12:06.283Z,3.45
2023-02-27T05:14:39.403Z,2.90
2023-02-27T05:17:12.654Z,3.10
2023-02-27T05:19:41.765Z,3.00
2023-02-27T05:22:18.049Z,3.20
2023-02-27T05:24:45.314Z,3.22
2023-02-27T05:27:29.656Z,3.50
2023-02-27T05:30:00.149Z,3.05
2023-02-27T05:32:27.344Z,3.60
2023-02-27T05:35:05.606Z,2.70
2023-02-27T05:37:54.446Z,3.08
2023-02-27T05:40:24.298Z,3.08
2023-02-27T05:43:08.276Z,2.97
2023-02-27T05:45:38.093Z,3.22
2023-02-27T05:48:09.995Z,3.35
2023-02-27T05:50:38.502Z,3.25
2023-02-27T05:53:08.784Z,2.97
2023-02-27T05:55:42.060Z,3.10
2023-02-27T05:58:16.891Z,3.35
2023-02-27T06:00:46.738Z,3.17
2023-02-27T06:03:14.459Z,3.17
2023-02-27T06:05:42.694Z,3.22
2023-02-27T06:08:09.973Z,3.45
2023-02-27T06:10:37.910Z,3.38
2023-02-27T06:13:05.111Z,3.40
2023-02-27T06:15:32.817Z,3.33
2023-02-27T06:18:00.244Z,3.50
2023-02-27T06:20:27.563Z,3.20
2023-02-27T06:22:54.695Z,3.20
2023-02-27T06:25:22.201Z,2.92
2023-02-27T06:27:49.404Z,3.38
2023-02-27T06:30:16.634Z,2.88
2023-02-27T06:32:43.800Z,3.22
2023-02-27T06:35:12.255Z,3.38
2023-02-27T06:37:39.408Z,3.38
2023-02-27T06:40:11.543Z,3.40
2023-02-27T06:42:39.639Z,3.20
2023-02-27T06:45:07.177Z,3.25
2023-02-27T06:47:34.594Z,3.15
2023-02-27T06:50:02.021Z,3.28
2023-02-27T06:52:29.153Z,3.17
2023-02-27T06:54:56.325Z,3.05
2023-02-27T06:57:23.521Z,3.60
2023-02-27T06:59:50.648Z,2.90
2023-02-27T07:02:18.393Z,3.63
2023-02-27T07:04:45.710Z,3.30
2023-02-27T07:07:34.215Z,3.05
2023-02-27T07:10:01.682Z,3.08
2023-02-27T07:12:28.912Z,3.20
2023-02-27T07:14:56.064Z,2.85
2023-02-27T07:17:23.206Z,3.30
2023-02-27T07:19:50.401Z,3.55
2023-02-27T07:22:17.588Z,3.00
2023-02-27T07:24:44.735Z,2.90
2023-02-27T07:27:11.889Z,2.70
2023-02-27T07:29:38.999Z,3.08
2023-02-27T07:32:06.183Z,3.10
2023-02-27T07:34:33.422Z,2.97
2023-02-27T07:37:00.553Z,3.08
2023-02-27T07:39:27.699Z,3.13
2023-02-27T07:41:54.825Z,2.95
2023-02-27T07:44:21.972Z,2.78
2023-02-27T07:46:49.211Z,2.95
2023-02-27T07:49:16.374Z,2.70
2023-02-27T07:51:43.832Z,3.00
2023-02-27T07:54:11.007Z,3.33
2023-02-27T07:56:38.139Z,2.80
2023-02-27T07:59:05.290Z,3.00
2023-02-27T08:01:32.450Z,2.70
2023-02-27T08:03:59.603Z,3.15
2023-02-27T08:06:27.024Z,2.42
2023-02-27T08:08:54.673Z,2.97
2023-02-27T08:11:21.789Z,3.25
2023-02-27T08:14:05.444Z,2.88
2023-02-27T08:16:33.260Z,2.95
2023-02-27T08:19:00.961Z,2.75
2023-02-27T08:21:28.910Z,3.30
2023-02-27T08:23:56.305Z,3.38
2023-02-27T08:26:23.874Z,2.97
2023-02-27T08:28:52.405Z,3.33
2023-02-27T08:31:19.598Z,3.20
2023-02-27T08:33:48.302Z,3.00
2023-02-27T08:36:15.653Z,2.97
2023-02-27T08:38:43.580Z,3.45
2023-02-27T08:41:10.897Z,3.13
2023-02-27T08:43:38.104Z,3.70
2023-02-27T08:46:05.424Z,3.88
2023-02-27T08:48:32.622Z,3.10
2023-02-27T08:50:59.763Z,3.50
2023-02-27T08:53:27.898Z,3.22
2023-02-27T08:55:55.092Z,3.50
2023-02-27T08:58:22.370Z,3.63
2023-02-27T09:00:49.543Z,3.42
2023-02-27T09:03:16.723Z,3.88
2023-02-27T09:05:44.577Z,3.35
2023-02-27T09:08:11.740Z,3.65
2023-02-27T09:10:39.031Z,3.55
2023-02-27T09:13:06.196Z,3.85
2023-02-27T09:15:37.892Z,3.92
2023-02-27T09:18:06.982Z,4.15
2023-02-27T09:20:37.819Z,4.40
2023-02-27T09:23:05.255Z,4.00
2023-02-27T09:25:32.445Z,3.90
2023-02-27T09:27:59.604Z,3.72
2023-02-27T09:30:26.961Z,3.75
2023-02-27T09:32:54.207Z,3.88
2023-02-27T09:35:21.594Z,4.25
2023-02-27T09:37:49.574Z,3.85
2023-02-27T09:40:19.868Z,4.15
2023-02-27T09:42:48.524Z,4.68
2023-02-27T09:45:23.483Z,4.40
2023-02-27T09:47:53.873Z,4.28
2023-02-27T09:50:28.215Z,4.45
2023-02-27T09:52:55.350Z,4.25
2023-02-27T09:55:22.853Z,3.88
2023-02-27T09:57:56.347Z,4.22
2023-02-27T10:00:26.472Z,3.97
2023-02-27T10:02:56.767Z,4.25
2023-02-27T10:05:44.245Z,4.22
2023-02-27T10:08:11.394Z,3.35
2023-02-27T10:10:47.748Z,3.63
2023-02-27T10:13:17.624Z,3.70
2023-02-27T10:15:47.842Z,4.10
2023-02-27T10:18:26.853Z,4.03
2023-02-27T10:20:57.200Z,3.92
2023-02-27T10:23:32.710Z,3.28
2023-02-27T10:26:00.780Z,3.90
2023-02-27T10:28:28.038Z,3.40
2023-02-27T10:30:56.887Z,3.92
2023-02-27T10:33:34.655Z,3.97
2023-02-27T10:36:03.562Z,3.65
2023-02-27T10:38:44.590Z,3.70
2023-02-27T10:41:13.330Z,4.40
2023-02-27T10:43:41.093Z,3.70
2023-02-27T10:46:13.954Z,4.00
2023-02-27T10:48:41.514Z,3.70
2023-02-27T10:51:23.701Z,3.22
2023-02-27T10:53:52.789Z,2.70
2023-02-27T10:56:24.968Z,3.47
2023-02-27T10:59:05.616Z,2.63
2023-02-27T11:01:45.849Z,3.17
2023-02-27T11:04:13.639Z,2.45
2023-02-27T11:06:42.536Z,3.15
2023-02-27T11:09:29.248Z,3.03
2023-02-27T11:12:10.301Z,3.20
2023-02-27T11:14:48.313Z,3.10
2023-02-27T11:17:22.333Z,2.72
2023-02-27T11:19:49.841Z,2.53
2023-02-27T11:22:18.684Z,2.30
2023-02-27T11:24:46.045Z,2.75
2023-02-27T11:27:26.725Z,2.40
2023-02-27T11:30:02.362Z,2.20
2023-02-27T11:32:37.737Z,2.60
2023-02-27T11:35:05.644Z,2.35
2023-02-27T11:37:36.659Z,2.00
2023-02-27T11:40:10.520Z,2.60
2023-02-27T11:42:42.833Z,2.13
2023-02-27T11:46:23.068Z,2.50
2023-02-27T11:48:17.184Z,2.50
2023-02-27T11:50:48.703Z,2.20
2023-02-27T11:53:25.229Z,1.80
2023-02-27T11:55:55.187Z,2.65
2023-02-27T11:58:23.597Z,2.10
2023-02-27T12:00:57.358Z,2.50
2023-02-27T12:03:24.459Z,2.10
2023-02-27T12:05:53.690Z,2.67
2023-02-27T12:08:42.767Z,2.30
2023-02-27T12:11:16.676Z,2.00
2023-02-27T12:13:46.029Z,2.23
2023-02-27T12:16:19.628Z,2.10
2023-02-27T12:19:19.464Z,2.10
2023-02-27T12:21:54.598Z,2.63
2023-02-27T12:24:21.907Z,2.28
2023-02-27T12:26:53.243Z,2.20
2023-02-27T12:29:30.523Z,2.17
2023-02-27T12:32:07.020Z,2.38
2023-02-27T12:34:43.212Z,2.72
2023-02-27T12:37:12.306Z,2.47
2023-02-27T12:39:40.183Z,2.28
2023-02-27T12:42:19.608Z,2.20
2023-02-27T12:45:05.401Z,1.88
2023-02-27T12:47:39.745Z,2.38
2023-02-27T12:50:11.822Z,2.33
2023-02-27T12:52:44.026Z,2.22
2023-02-27T12:55:16.682Z,2.28
2023-02-27T12:57:46.956Z,2.47
2023-02-27T13:00:16.586Z,2.15
2023-02-27T13:03:02.136Z,2.25
2023-02-27T13:05:32.414Z,2.25
2023-02-27T13:08:21.405Z,2.20
2023-02-27T13:10:54.848Z,2.30
2023-02-27T13:13:31.985Z,2.50
2023-02-27T13:16:22.454Z,2.50
2023-02-27T13:18:49.640Z,2.65
2023-02-27T13:21:26.656Z,2.35
2023-02-27T13:24:16.901Z,2.40
2023-02-27T13:27:02.773Z,2.75
2023-02-27T13:29:38.717Z,2.28
2023-02-27T13:32:06.097Z,2.33
2023-02-27T13:34:59.545Z,2.30
2023-02-27T13:37:46.670Z,2.00
2023-02-27T13:40:29.349Z,2.50
2023-02-27T13:42:58.121Z,2.28
2023-02-27T13:45:44.034Z,2.63
2023-02-27T13:48:29.770Z,2.97
2023-02-27T13:50:57.114Z,2.72
2023-02-27T13:53:24.720Z,2.60
2023-02-27T13:55:53.953Z,2.70
2023-02-27T13:58:24.682Z,2.03
2023-02-27T14:00:56.002Z,2.80
2023-02-27T14:03:25.787Z,3.72
2023-02-27T14:05:55.190Z,2.75
2023-02-27T14:08:27.510Z,2.50
2023-02-27T14:11:00.618Z,2.80
2023-02-27T14:14:01.529Z,2.53
2023-02-27T14:16:40.779Z,2.80
2023-02-27T14:19:17.802Z,2.90
2023-02-27T14:21:57.008Z,2.80
2023-02-27T14:24:31.017Z,3.00
2023-02-27T14:26:58.783Z,3.33
2023-02-27T14:29:31.291Z,2.88
2023-02-27T14:32:00.079Z,2.97
2023-02-27T14:34:27.589Z,3.35
2023-02-27T14:36:56.227Z,3.42
2023-02-27T14:39:27.428Z,2.70
2023-02-27T14:42:06.136Z,2.80
2023-02-27T14:44:41.768Z,3.25
2023-02-27T14:47:13.793Z,3.05
2023-02-27T14:49:40.965Z,3.15
2023-02-27T14:52:17.325Z,3.08
2023-02-27T14:54:45.327Z,4.13
2023-02-27T14:57:20.169Z,3.10
2023-02-27T15:02:21.964Z,3.00
2023-02-27T15:04:51.213Z,3.17
2023-02-27T15:07:24.717Z,3.25
2023-02-27T15:09:54.252Z,3.20
2023-02-27T15:12:22.544Z,3.05
2023-02-27T15:14:54.304Z,2.78
2023-02-27T15:17:25.802Z,2.92
2023-02-27T15:19:54.411Z,3.13
2023-02-27T15:22:37.626Z,3.15
2023-02-27T15:25:07.885Z,4.30
2023-02-27T15:27:37.533Z,2.85
2023-02-27T15:30:05.426Z,2.95
2023-02-27T15:32:42.304Z,3.35
2023-02-27T15:35:15.733Z,3.17
2023-02-27T15:37:46.749Z,2.95
2023-02-27T15:40:17.775Z,2.95
2023-02-27T15:42:45.385Z,3.40
2023-02-27T15:45:19.723Z,3.20
2023-02-27T15:47:47.249Z,3.08
2023-02-27T15:50:17.551Z,3.17
2023-02-27T15:52:52.386Z,2.75
2023-02-27T15:55:27.490Z,2.95
2023-02-27T15:58:02.677Z,3.17
2023-02-27T16:00:31.435Z,3.35
2023-02-27T16:02:59.301Z,3.03
2023-02-27T16:05:36.890Z,3.60
2023-02-27T16:08:05.622Z,2.83
2023-02-27T16:10:42.466Z,3.30
2023-02-27T16:13:28.845Z,3.17
2023-02-27T16:16:03.992Z,2.63
2023-02-27T16:18:35.350Z,2.88
2023-02-27T16:21:11.462Z,2.60
2023-02-27T16:23:38.980Z,3.22
2023-02-27T16:26:23.577Z,2.50
2023-02-27T16:28:53.784Z,2.63
2023-02-27T16:31:26.862Z,2.83
2023-02-27T16:33:54.932Z,3.05
2023-02-27T16:36:23.916Z,2.97
2023-02-27T16:38:51.745Z,2.83
2023-02-27T16:41:20.025Z,2.80
2023-02-27T16:43:47.845Z,2.45
2023-02-27T16:46:20.016Z,2.90
2023-02-27T16:48:49.948Z,2.85
2023-02-27T16:51:18.474Z,3.15
2023-02-27T16:53:47.604Z,2.97
2023-02-27T16:56:15.168Z,3.35
2023-02-27T16:58:42.742Z,3.22
2023-02-27T17:01:09.905Z,3.85
2023-02-27T17:03:37.370Z,3.35
2023-02-27T17:06:05.110Z,3.28
2023-02-27T17:08:32.265Z,2.78
2023-02-27T17:10:59.447Z,3.40
2023-02-27T17:13:27.723Z,4.10
2023-02-27T17:15:54.853Z,3.70
2023-02-27T17:18:22.756Z,3.13
2023-02-27T17:20:51.131Z,3.38
2023-02-27T17:23:18.586Z,3.17
2023-02-27T17:25:46.155Z,3.35
2023-02-27T17:28:13.336Z,3.20
2023-02-27T17:30:40.640Z,3.28
2023-02-27T17:33:07.859Z,3.42
2023-02-27T17:35:35.088Z,3.70
2023-02-27T17:38:02.299Z,3.38
2023-02-27T17:40:29.897Z,3.60
2023-02-27T17:42:57.303Z,3.30
2023-02-27T17:45:26.995Z,3.42
2023-02-27T17:47:54.723Z,3.60
2023-02-27T17:50:21.922Z,3.50
2023-02-27T17:52:49.106Z,3.85
2023-02-27T17:55:16.888Z,3.55
2023-02-27T17:57:44.126Z,4.32
2023-02-27T18:00:14.507Z,3.78
2023-02-27T18:02:41.777Z,4.25
2023-02-27T18:05:09.133Z,4.05
2023-02-27T18:07:39.711Z,4.20
2023-02-27T18:10:09.010Z,4.15
2023-02-27T18:12:36.594Z,4.80
2023-02-27T18:15:04.418Z,4.15
2023-02-27T18:17:31.579Z,4.15
2023-02-27T18:19:58.894Z,4.25
2023-02-27T18:22:26.117Z,4.57
2023-02-27T18:24:58.613Z,3.75
2023-02-27T18:27:27.951Z,4.43
2023-02-27T18:29:57.560Z,3.85
2023-02-27T18:32:25.084Z,3.70
2023-02-27T18:34:53.883Z,3.90
2023-02-27T18:37:21.027Z,3.65
2023-02-27T18:39:48.322Z,4.68
2023-02-27T18:42:15.547Z,3.58
2023-02-27T18:44:43.024Z,4.32
2023-02-27T18:47:12.030Z,4.15
2023-02-27T18:49:39.314Z,3.80
2023-02-27T18:52:06.524Z,4.85
2023-02-27T18:54:33.736Z,4.00
2023-02-27T18:57:00.848Z,3.97
2023-02-27T18:59:28.327Z,4.55
2023-02-27T19:01:55.489Z,4.38
2023-02-27T19:04:23.138Z,4.10
2023-02-27T19:06:50.301Z,4.22
2023-02-27T19:09:17.859Z,3.80
2023-02-27T19:11:48.025Z,4.20
2023-02-27T19:14:16.134Z,3.97
2023-02-27T19:16:44.220Z,4.45
2023-02-27T19:19:11.912Z,4.03
2023-02-27T19:21:39.667Z,4.18
2023-02-27T19:24:07.136Z,3.80
2023-02-27T19:26:34.732Z,4.30
2023-02-27T19:29:02.319Z,4.50
2023-02-27T19:31:29.553Z,4.18
2023-02-27T19:33:56.894Z,4.00
2023-02-27T19:36:25.196Z,4.18
2023-02-27T19:38:52.628Z,3.88
2023-02-27T19:41:20.237Z,4.15
2023-02-27T19:43:47.923Z,4.30
2023-02-27T19:46:16.921Z,3.78
2023-02-27T19:48:45.326Z,3.80
2023-02-27T19:51:13.671Z,4.00
2023-02-27T19:53:42.026Z,3.92
2023-02-27T19:56:11.483Z,4.00
2023-02-27T19:58:39.398Z,3.92
2023-02-27T20:01:07.043Z,3.85
2023-02-27T20:03:35.620Z,4.55
2023-02-27T20:06:06.382Z,4.53
2023-02-27T20:08:34.037Z,3.80
2023-02-27T20:11:02.965Z,3.80
2023-02-27T20:13:30.395Z,4.00
2023-02-27T20:15:58.675Z,3.97
2023-02-27T20:18:27.457Z,4.05
2023-02-27T20:21:08.245Z,4.07
2023-02-27T20:23:36.694Z,4.03
2023-02-27T20:26:14.549Z,3.70
2023-02-27T20:28:41.727Z,3.78
2023-02-27T20:31:10.154Z,3.63
2023-02-27T20:33:37.822Z,4.18
2023-02-27T20:36:05.910Z,2.75
2023-02-27T20:38:34.053Z,2.92
2023-02-27T20:41:01.439Z,2.60
2023-02-27T20:43:29.287Z,3.03
2023-02-27T20:45:56.492Z,3.17
2023-02-27T20:48:24.196Z,3.08
2023-02-27T20:50:51.356Z,2.50
2023-02-27T20:53:18.546Z,2.40
2023-02-27T20:55:49.419Z,2.30
2023-02-27T20:58:16.785Z,2.72
2023-02-27T21:00:43.965Z,2.80
2023-02-27T21:03:11.147Z,2.42
2023-02-27T21:05:38.300Z,2.72
2023-02-27T21:08:05.541Z,2.72
2023-02-27T21:10:33.085Z,2.70
2023-02-27T21:13:00.350Z,2.58
2023-02-27T21:15:27.486Z,2.97
2023-02-27T21:17:54.721Z,2.63
2023-02-27T21:20:21.863Z,2.40
2023-02-27T21:22:49.033Z,2.40
2023-02-27T21:25:16.211Z,2.53
2023-02-27T21:27:43.381Z,2.20
2023-02-27T21:30:11.043Z,2.40
2023-02-27T21:32:38.152Z,2.15
2023-02-27T21:35:05.438Z,2.38
2023-02-27T21:37:32.643Z,2.30
2023-02-27T21:40:01.805Z,2.50
2023-02-27T21:42:28.952Z,2.22
2023-02-27T21:44:56.162Z,2.35
2023-02-27T21:47:23.282Z,2.47
2023-02-27T21:49:52.144Z,2.50
2023-02-27T21:52:19.323Z,2.63
2023-02-27T21:54:46.475Z,2.22
2023-02-27T21:57:13.636Z,2.53
2023-02-27T21:59:42.324Z,2.40
2023-02-27T22:02:11.473Z,2.75
2023-02-27T22:04:38.653Z,2.80
2023-02-27T22:07:05.867Z,2.90
2023-02-27T22:09:33.030Z,2.47
2023-02-27T22:12:00.197Z,2.50
2023-02-27T22:14:27.338Z,2.08
2023-02-27T22:16:54.552Z,2.30
2023-02-27T22:19:23.409Z,2.22
2023-02-27T22:21:50.641Z,1.92
2023-02-27T22:24:18.333Z,2.08
2023-02-27T22:26:45.831Z,2.47
2023-02-27T22:29:13.089Z,2.00
2023-02-27T22:31:41.121Z,2.15
2023-02-27T22:34:11.981Z,2.22
2023-02-27T22:36:41.753Z,2.30
2023-02-27T22:39:08.922Z,2.58
2023-02-27T22:41:37.499Z,2.38
2023-02-27T22:44:04.743Z,2.67
2023-02-27T22:46:33.407Z,2.40
2023-02-27T22:49:05.572Z,2.55
2023-02-27T22:51:33.307Z,2.40
2023-02-27T22:54:01.909Z,2.58
2023-02-27T22:56:29.577Z,2.40
2023-02-27T22:58:56.912Z,2.47
2023-02-27T23:01:25.200Z,2.17
2023-02-27T23:03:53.390Z,2.35
2023-02-27T23:06:25.109Z,2.60
2023-02-27T23:08:52.494Z,2.30
2023-02-27T23:11:20.076Z,2.60
2023-02-27T23:13:47.742Z,2.28
2023-02-27T23:16:15.122Z,3.10
2023-02-27T23:18:43.275Z,2.60
2023-02-27T23:21:10.750Z,3.15
2023-02-27T23:23:37.925Z,2.40
2023-02-27T23:26:05.912Z,2.63
2023-02-27T23:28:33.885Z,2.83
2023-02-27T23:31:01.838Z,2.60
2023-02-27T23:33:29.577Z,2.90
2023-02-27T23:36:00.616Z,2.40
2023-02-27T23:38:28.168Z,2.83
2023-02-27T23:40:55.362Z,2.55
2023-02-27T23:43:23.067Z,3.20
2023-02-27T23:45:50.471Z,2.65
2023-02-27T23:48:17.661Z,2.92
2023-02-27T23:50:45.283Z,2.70
2023-02-27T23:53:13.614Z,2.78
2023-02-27T23:55:41.406Z,2.92
2023-02-27T23:58:10.102Z,2.97
